createdAt,value
2018-05-31T00:00:26.140Z,21.70
2018-05-31T00:02:54.375Z,21.70
2018-05-31T00:05:22.566Z,21.70
2018-05-31T00:07:50.719Z,21.50
2018-05-31T00:10:18.889Z,21.30
2018-05-31T00:12:47.063Z,21.20
2018-05-31T00:15:15.264Z,21.20
2018-05-31T00:17:43.470Z,21.20
2018-05-31T00:20:11.634Z,21.10
2018-05-31T00:22:39.825Z,21.10
2018-05-31T00:25:08.814Z,21.10
2018-05-31T00:27:36.958Z,21.00
2018-05-31T00:30:05.134Z,20.90
2018-05-31T00:32:33.340Z,20.80
2018-05-31T00:35:01.523Z,20.90
2018-05-31T00:37:30.476Z,20.80
2018-05-31T00:39:58.676Z,20.80
2018-05-31T00:42:26.843Z,20.80
2018-05-31T00:44:55.017Z,20.80
2018-05-31T00:47:23.184Z,20.90
2018-05-31T00:49:51.347Z,20.90
2018-05-31T00:52:19.515Z,20.90
2018-05-31T00:54:47.698Z,20.80
2018-05-31T00:57:15.882Z,20.80
2018-05-31T00:59:44.057Z,20.80
2018-05-31T01:02:12.238Z,20.70
2018-05-31T01:04:41.323Z,20.70
2018-05-31T01:07:09.535Z,20.70
2018-05-31T01:09:37.732Z,20.70
2018-05-31T01:12:05.924Z,20.70
2018-05-31T01:14:34.896Z,20.70
2018-05-31T01:17:03.066Z,20.70
2018-05-31T01:19:31.272Z,20.70
2018-05-31T01:21:59.448Z,20.70
2018-05-31T01:24:27.639Z,20.60
2018-05-31T01:26:55.798Z,20.60
2018-05-31T01:29:24.035Z,20.60
2018-05-31T01:31:52.199Z,20.50
2018-05-31T01:34:20.374Z,20.40
2018-05-31T01:36:48.554Z,20.40
2018-05-31T01:39:18.667Z,20.30
2018-05-31T01:41:46.836Z,20.20
2018-05-31T01:44:15.028Z,20.10
2018-05-31T01:46:43.199Z,20.10
2018-05-31T01:49:11.409Z,20.00
2018-05-31T01:51:40.434Z,19.80
2018-05-31T01:54:08.598Z,19.80
2018-05-31T01:56:37.516Z,19.70
2018-05-31T01:59:05.755Z,19.70
2018-05-31T02:01:33.913Z,19.60
2018-05-31T02:04:02.096Z,19.60
2018-05-31T02:06:31.014Z,19.50
2018-05-31T02:08:59.209Z,19.50
2018-05-31T02:11:27.389Z,19.50
2018-05-31T02:13:55.565Z,19.40
2018-05-31T02:16:23.736Z,19.50
2018-05-31T02:18:51.904Z,19.50
2018-05-31T02:21:20.059Z,19.40
2018-05-31T02:23:48.231Z,19.40
2018-05-31T02:26:16.405Z,19.30
2018-05-31T02:28:44.573Z,19.30
2018-05-31T02:31:12.752Z,19.30
2018-05-31T02:33:40.907Z,19.30
2018-05-31T02:36:09.836Z,19.30
2018-05-31T02:38:37.989Z,19.20
2018-05-31T02:41:06.156Z,19.30
2018-05-31T02:43:34.326Z,19.20
2018-05-31T02:46:02.485Z,19.20
2018-05-31T02:48:30.658Z,19.10
2018-05-31T02:50:58.848Z,19.10
2018-05-31T02:53:27.036Z,19.10
2018-05-31T02:55:55.215Z,19.00
2018-05-31T02:58:23.389Z,19.00
2018-05-31T03:00:51.718Z,19.00
2018-05-31T03:03:20.642Z,18.90
2018-05-31T03:05:48.807Z,18.90
2018-05-31T03:08:16.962Z,18.90
2018-05-31T03:10:45.137Z,18.90
2018-05-31T03:13:13.295Z,18.90
2018-05-31T03:15:42.243Z,18.80
2018-05-31T03:18:10.392Z,18.80
2018-05-31T03:20:38.562Z,18.80
2018-05-31T03:23:06.714Z,18.80
2018-05-31T03:25:35.672Z,18.90
2018-05-31T03:28:03.827Z,18.90
2018-05-31T03:30:32.011Z,18.80
2018-05-31T03:33:00.204Z,18.90
2018-05-31T03:35:29.152Z,18.80
2018-05-31T03:37:57.326Z,18.70
2018-05-31T03:40:25.499Z,18.70
2018-05-31T03:42:53.745Z,18.60
2018-05-31T03:45:22.046Z,18.60
2018-05-31T03:47:50.198Z,18.70
2018-05-31T03:50:18.369Z,18.70
2018-05-31T03:52:46.538Z,18.60
2018-05-31T03:55:14.720Z,18.60
2018-05-31T03:57:42.894Z,18.50
2018-05-31T04:00:11.074Z,18.60
2018-05-31T04:02:39.344Z,18.50
2018-05-31T04:05:07.529Z,18.50
2018-05-31T04:07:35.694Z,18.40
2018-05-31T04:10:03.989Z,18.40
2018-05-31T04:12:32.198Z,18.40
2018-05-31T04:15:01.149Z,18.30
2018-05-31T04:17:29.342Z,18.30
2018-05-31T04:19:57.543Z,18.30
2018-05-31T04:22:26.516Z,18.40
2018-05-31T04:24:54.697Z,18.40
2018-05-31T04:27:22.850Z,18.40
2018-05-31T04:29:51.037Z,18.40
2018-05-31T04:32:19.191Z,18.40
2018-05-31T04:34:47.376Z,18.40
2018-05-31T04:37:15.539Z,18.30
2018-05-31T04:39:43.804Z,18.40
2018-05-31T04:42:11.988Z,18.40
2018-05-31T04:44:40.186Z,18.50
2018-05-31T04:47:09.133Z,18.60
2018-05-31T04:49:37.364Z,18.60
2018-05-31T04:52:06.292Z,18.70
2018-05-31T04:54:34.494Z,18.70
2018-05-31T04:57:02.668Z,18.70
2018-05-31T04:59:30.877Z,18.70
2018-05-31T05:01:59.831Z,18.70
2018-05-31T05:04:28.033Z,18.70
2018-05-31T05:06:56.981Z,18.90
2018-05-31T05:09:25.180Z,18.80
2018-05-31T05:11:53.349Z,18.90
2018-05-31T05:14:22.187Z,19.00
2018-05-31T05:16:50.362Z,19.00
2018-05-31T05:19:18.611Z,19.10
2018-05-31T05:21:47.589Z,19.20
2018-05-31T05:24:15.895Z,19.20
2018-05-31T05:26:44.080Z,19.30
2018-05-31T05:29:12.276Z,19.50
2018-05-31T05:31:40.435Z,20.10
2018-05-31T05:34:08.622Z,20.70
2018-05-31T05:36:36.790Z,21.30
2018-05-31T05:39:05.864Z,21.90
2018-05-31T05:41:34.124Z,22.30
2018-05-31T05:44:02.317Z,22.70
2018-05-31T05:46:30.497Z,22.90
2018-05-31T05:48:58.871Z,23.00
2018-05-31T05:51:27.070Z,23.10
2018-05-31T05:53:55.602Z,23.40
2018-05-31T05:56:23.877Z,23.60
2018-05-31T05:58:52.039Z,23.90
2018-05-31T06:01:20.226Z,24.30
2018-05-31T06:03:48.393Z,24.10
2018-05-31T06:06:17.337Z,24.60
2018-05-31T06:08:48.560Z,24.60
2018-05-31T06:11:16.759Z,24.70
2018-05-31T06:13:45.827Z,24.90
2018-05-31T06:16:14.861Z,25.10
2018-05-31T06:18:43.136Z,25.10
2018-05-31T06:21:11.325Z,25.00
2018-05-31T06:23:39.508Z,24.60
2018-05-31T06:26:08.456Z,24.00
2018-05-31T06:28:36.637Z,24.00
2018-05-31T06:31:04.810Z,24.10
2018-05-31T06:33:32.990Z,24.20
2018-05-31T06:36:01.381Z,24.10
2018-05-31T06:38:30.480Z,23.90
2018-05-31T06:40:58.677Z,23.90
2018-05-31T06:43:27.783Z,23.70
2018-05-31T06:45:55.994Z,23.60
2018-05-31T06:48:24.144Z,23.60
2018-05-31T06:50:52.340Z,23.60
2018-05-31T06:53:20.500Z,23.40
2018-05-31T06:55:49.039Z,23.40
2018-05-31T06:58:17.233Z,23.30
2018-05-31T07:00:45.463Z,23.30
2018-05-31T07:03:13.581Z,23.30
2018-05-31T07:05:41.781Z,23.30
2018-05-31T07:08:10.009Z,23.30
2018-05-31T07:10:38.934Z,23.50
2018-05-31T07:13:07.101Z,23.40
2018-05-31T07:15:35.412Z,23.40
2018-05-31T07:18:03.627Z,23.60
2018-05-31T07:20:32.573Z,23.80
2018-05-31T07:23:00.777Z,23.80
2018-05-31T07:25:29.734Z,23.80
2018-05-31T07:27:57.895Z,23.80
2018-05-31T07:30:26.060Z,23.90
2018-05-31T07:32:54.292Z,23.90
2018-05-31T07:35:22.470Z,24.00
2018-05-31T07:37:50.648Z,24.00
2018-05-31T07:40:18.822Z,24.00
2018-05-31T07:42:47.760Z,24.20
2018-05-31T07:45:15.981Z,24.10
2018-05-31T07:47:44.445Z,24.30
2018-05-31T07:50:12.657Z,24.50
2018-05-31T07:52:40.905Z,24.60
2018-05-31T07:55:09.824Z,24.70
2018-05-31T07:57:38.002Z,24.70
2018-05-31T08:00:06.161Z,24.90
2018-05-31T08:02:34.478Z,24.90
2018-05-31T08:05:02.689Z,25.00
2018-05-31T08:07:30.860Z,25.10
2018-05-31T08:09:59.027Z,25.20
2018-05-31T08:12:27.266Z,25.30
2018-05-31T08:14:55.447Z,25.40
2018-05-31T08:17:23.656Z,25.50
2018-05-31T08:19:51.832Z,25.60
2018-05-31T08:22:19.986Z,25.70
2018-05-31T08:24:48.257Z,25.90
2018-05-31T08:27:16.421Z,25.90
2018-05-31T08:29:44.686Z,26.00
2018-05-31T08:32:12.891Z,25.90
2018-05-31T08:34:41.084Z,25.90
2018-05-31T08:37:10.017Z,26.10
2018-05-31T08:39:38.201Z,26.10
2018-05-31T08:42:06.409Z,26.20
2018-05-31T08:44:34.602Z,26.30
2018-05-31T08:47:02.891Z,26.40
2018-05-31T08:49:31.068Z,26.50
2018-05-31T08:51:59.216Z,26.50
2018-05-31T08:54:28.155Z,26.60
2018-05-31T08:56:56.385Z,26.60
2018-05-31T08:59:24.586Z,26.80
2018-05-31T09:01:52.918Z,26.70
2018-05-31T09:04:21.278Z,26.60
2018-05-31T09:06:50.207Z,26.60
2018-05-31T09:09:18.431Z,26.60
2018-05-31T09:11:46.600Z,26.70
2018-05-31T09:14:14.762Z,26.90
2018-05-31T09:16:43.068Z,27.10
2018-05-31T09:19:11.215Z,27.30
2018-05-31T09:21:39.619Z,27.40
2018-05-31T09:24:07.793Z,27.40
2018-05-31T09:26:36.053Z,27.50
2018-05-31T09:29:04.242Z,27.50
2018-05-31T09:31:32.528Z,27.60
2018-05-31T09:34:00.808Z,27.60
2018-05-31T09:36:29.015Z,27.70
2018-05-31T09:38:57.316Z,27.70
2018-05-31T09:41:25.590Z,27.80
2018-05-31T09:43:53.765Z,27.80
2018-05-31T09:46:21.952Z,28.00
2018-05-31T09:48:50.148Z,28.00
2018-05-31T09:51:18.341Z,28.00
2018-05-31T09:53:47.254Z,27.90
2018-05-31T09:56:15.428Z,27.90
2018-05-31T09:58:43.576Z,28.00
2018-05-31T10:01:12.594Z,28.30
2018-05-31T10:03:40.745Z,28.20
2018-05-31T10:06:08.921Z,28.20
2018-05-31T10:08:37.136Z,28.20
2018-05-31T10:11:05.306Z,28.20
2018-05-31T10:13:33.512Z,28.30
2018-05-31T10:16:01.774Z,28.30
2018-05-31T10:18:29.921Z,28.40
2018-05-31T10:20:58.081Z,28.50
2018-05-31T10:23:26.236Z,28.60
2018-05-31T10:25:54.389Z,28.60
2018-05-31T10:28:22.609Z,28.60
2018-05-31T10:30:51.530Z,28.60
2018-05-31T10:33:19.761Z,28.60
2018-05-31T10:35:48.008Z,28.50
2018-05-31T10:38:16.993Z,28.50
2018-05-31T10:40:45.238Z,28.40
2018-05-31T10:43:13.398Z,28.50
2018-05-31T10:45:41.688Z,28.60
2018-05-31T10:48:09.972Z,28.80
2018-05-31T10:50:39.102Z,28.60
2018-05-31T10:53:07.333Z,28.40
2018-05-31T10:55:35.515Z,28.30
2018-05-31T10:58:03.682Z,28.40
2018-05-31T11:00:31.872Z,28.40
2018-05-31T11:03:00.021Z,28.30
2018-05-31T11:05:28.260Z,28.30
2018-05-31T11:07:56.434Z,28.40
2018-05-31T11:10:24.663Z,28.50
2018-05-31T11:12:52.843Z,28.60
2018-05-31T11:15:21.900Z,28.80
2018-05-31T11:17:50.241Z,28.80
2018-05-31T11:20:18.428Z,28.60
2018-05-31T11:22:47.126Z,28.40
2018-05-31T11:25:15.303Z,28.50
2018-05-31T11:27:44.057Z,28.70
2018-05-31T11:30:13.261Z,29.10
2018-05-31T11:32:41.429Z,29.00
2018-05-31T11:35:09.730Z,29.20
2018-05-31T11:37:37.931Z,29.30
2018-05-31T11:40:06.133Z,29.30
2018-05-31T11:42:34.297Z,29.10
2018-05-31T11:45:03.227Z,28.90
2018-05-31T11:47:31.427Z,28.90
2018-05-31T11:49:59.601Z,28.90
2018-05-31T11:52:27.759Z,29.00
2018-05-31T11:54:55.938Z,29.20
2018-05-31T11:57:24.186Z,29.40
2018-05-31T11:59:52.372Z,29.70
2018-05-31T12:02:23.199Z,29.80
2018-05-31T12:04:51.398Z,29.90
2018-05-31T12:07:19.888Z,29.90
2018-05-31T12:09:48.074Z,29.90
2018-05-31T12:12:16.267Z,29.90
2018-05-31T12:14:44.437Z,29.90
2018-05-31T12:17:12.589Z,29.90
2018-05-31T12:19:40.743Z,29.90
2018-05-31T12:22:08.920Z,30.10
2018-05-31T12:24:37.077Z,30.00
2018-05-31T12:27:05.251Z,29.50
2018-05-31T12:29:33.386Z,29.50
2018-05-31T12:32:02.311Z,29.90
2018-05-31T12:34:30.513Z,29.80
2018-05-31T12:36:58.684Z,30.10
2018-05-31T12:39:26.862Z,30.00
2018-05-31T12:41:55.015Z,30.10
2018-05-31T12:44:23.201Z,30.00
2018-05-31T12:46:51.350Z,29.90
2018-05-31T12:49:19.544Z,29.80
2018-05-31T12:51:47.686Z,29.70
2018-05-31T12:54:15.867Z,29.80
2018-05-31T12:56:44.004Z,29.90
2018-05-31T12:59:13.575Z,29.80
2018-05-31T13:01:41.753Z,29.80
2018-05-31T13:04:09.918Z,30.00
2018-05-31T13:06:38.221Z,30.00
2018-05-31T13:09:06.384Z,30.00
2018-05-31T13:11:34.527Z,30.00
2018-05-31T13:14:02.705Z,30.00
2018-05-31T13:16:30.866Z,29.90
2018-05-31T13:18:59.025Z,29.80
2018-05-31T13:21:27.193Z,29.70
2018-05-31T13:23:55.347Z,29.70
2018-05-31T13:26:24.302Z,29.50
2018-05-31T13:28:52.515Z,29.50
2018-05-31T13:31:21.459Z,29.20
2018-05-31T13:33:49.680Z,29.20
2018-05-31T13:36:18.190Z,29.00
2018-05-31T13:38:46.361Z,29.00
2018-05-31T13:41:14.570Z,29.00
2018-05-31T13:43:42.722Z,29.10
2018-05-31T13:46:10.925Z,29.00
2018-05-31T13:48:39.178Z,29.10
2018-05-31T13:51:07.270Z,29.00
2018-05-31T13:53:35.460Z,29.00
2018-05-31T13:56:04.402Z,28.90
2018-05-31T13:58:32.621Z,28.80
2018-05-31T14:01:00.773Z,28.60
2018-05-31T14:03:28.975Z,28.70
2018-05-31T14:05:57.190Z,28.90
2018-05-31T14:08:25.345Z,29.20
2018-05-31T14:10:53.544Z,29.30
2018-05-31T14:13:21.714Z,29.30
2018-05-31T14:15:50.031Z,29.40
2018-05-31T14:18:18.288Z,29.30
2018-05-31T14:20:46.599Z,29.40
2018-05-31T14:23:15.531Z,29.30
2018-05-31T14:25:43.754Z,29.30
2018-05-31T14:28:12.019Z,29.10
2018-05-31T14:30:40.942Z,29.00
2018-05-31T14:33:09.122Z,29.00
2018-05-31T14:35:37.315Z,29.20
2018-05-31T14:38:05.495Z,29.30
2018-05-31T14:40:33.686Z,29.30
2018-05-31T14:43:03.650Z,29.40
2018-05-31T14:45:31.813Z,29.60
2018-05-31T14:48:00.738Z,29.80
2018-05-31T14:50:28.950Z,29.80
2018-05-31T14:52:57.127Z,29.70
2018-05-31T14:55:25.356Z,29.70
2018-05-31T14:57:53.815Z,29.50
2018-05-31T15:00:22.018Z,29.40
2018-05-31T15:02:50.389Z,29.10
2018-05-31T15:05:18.578Z,29.30
2018-05-31T15:07:46.871Z,29.40
2018-05-31T15:10:15.048Z,29.30
2018-05-31T15:12:43.229Z,29.10
2018-05-31T15:15:11.515Z,29.10
2018-05-31T15:17:39.705Z,29.00
2018-05-31T15:20:07.879Z,29.10
2018-05-31T15:22:36.045Z,28.90
2018-05-31T15:25:04.235Z,28.80
2018-05-31T15:27:32.397Z,28.80
2018-05-31T15:30:01.319Z,29.00
2018-05-31T15:32:29.508Z,29.00
2018-05-31T15:34:57.764Z,29.20
2018-05-31T15:37:25.973Z,29.20
2018-05-31T15:39:54.198Z,29.10
2018-05-31T15:42:22.371Z,29.10
2018-05-31T15:44:50.525Z,29.10
2018-05-31T15:47:18.717Z,29.10
2018-05-31T15:49:46.903Z,29.20
2018-05-31T15:52:15.076Z,29.20
2018-05-31T15:54:43.257Z,29.20
2018-05-31T15:57:11.422Z,29.10
2018-05-31T15:59:40.006Z,28.90
2018-05-31T16:02:15.104Z,28.90
2018-05-31T16:04:44.136Z,28.80
2018-05-31T16:07:12.329Z,28.80
2018-05-31T16:09:40.501Z,28.70
2018-05-31T16:12:08.688Z,28.70
2018-05-31T16:14:36.837Z,28.80
2018-05-31T16:17:05.072Z,28.80
2018-05-31T16:19:34.068Z,29.00
2018-05-31T16:22:02.376Z,29.00
2018-05-31T16:24:30.689Z,29.00
2018-05-31T16:26:59.763Z,28.80
2018-05-31T16:29:28.028Z,28.80
2018-05-31T16:31:56.185Z,28.60
2018-05-31T16:34:24.377Z,28.30
2018-05-31T16:36:52.520Z,28.20
2018-05-31T16:39:20.703Z,28.10
2018-05-31T16:41:48.961Z,28.10
2018-05-31T16:44:17.220Z,28.10
2018-05-31T16:46:46.179Z,27.90
2018-05-31T16:49:14.350Z,27.90
2018-05-31T16:51:42.673Z,27.70
2018-05-31T16:54:10.876Z,27.60
2018-05-31T16:56:39.226Z,27.60
2018-05-31T16:59:07.427Z,27.60
2018-05-31T17:01:36.321Z,27.50
2018-05-31T17:04:04.494Z,27.50
2018-05-31T17:06:32.662Z,27.50
2018-05-31T17:09:00.839Z,27.50
2018-05-31T17:11:29.112Z,27.60
2018-05-31T17:13:57.294Z,27.60
2018-05-31T17:16:27.172Z,27.50
2018-05-31T17:18:55.366Z,27.40
2018-05-31T17:21:23.511Z,27.40
2018-05-31T17:23:52.438Z,27.10
2018-05-31T17:26:21.018Z,27.10
2018-05-31T17:28:49.219Z,26.90
2018-05-31T17:31:17.418Z,26.80
2018-05-31T17:33:46.611Z,26.50
2018-05-31T17:36:14.804Z,26.50
2018-05-31T17:38:43.016Z,26.40
2018-05-31T17:41:11.151Z,26.30
2018-05-31T17:43:39.325Z,26.20
2018-05-31T17:46:07.506Z,26.10
2018-05-31T17:48:35.665Z,26.00
2018-05-31T17:51:03.913Z,25.90
2018-05-31T17:53:32.087Z,26.00
2018-05-31T17:56:00.245Z,25.90
2018-05-31T17:58:28.384Z,25.70
2018-05-31T18:00:56.565Z,25.60
2018-05-31T18:03:24.746Z,25.60
2018-05-31T18:05:52.900Z,25.60
2018-05-31T18:08:21.078Z,25.50
2018-05-31T18:10:49.304Z,25.40
2018-05-31T18:13:17.645Z,25.30
2018-05-31T18:15:45.791Z,25.30
2018-05-31T18:18:13.939Z,25.20
2018-05-31T18:20:42.897Z,24.90
2018-05-31T18:23:11.083Z,24.90
2018-05-31T18:25:39.233Z,24.80
2018-05-31T18:28:07.421Z,24.70
2018-05-31T18:30:35.703Z,24.60
2018-05-31T18:33:03.868Z,24.50
2018-05-31T18:35:32.078Z,24.50
2018-05-31T18:38:00.281Z,24.40
2018-05-31T18:40:28.519Z,24.30
2018-05-31T18:42:56.725Z,24.30
2018-05-31T18:45:24.964Z,24.20
2018-05-31T18:47:53.283Z,24.10
2018-05-31T18:50:21.476Z,24.10
2018-05-31T18:52:49.665Z,24.10
2018-05-31T18:55:17.875Z,24.00
2018-05-31T18:57:46.042Z,24.00
2018-05-31T19:00:14.970Z,23.90
2018-05-31T19:02:43.149Z,23.80
2018-05-31T19:05:11.301Z,23.70
2018-05-31T19:07:39.483Z,23.70
2018-05-31T19:10:07.660Z,23.60
2018-05-31T19:12:42.242Z,23.50
2018-05-31T19:15:11.188Z,23.40
2018-05-31T19:17:39.356Z,23.40
2018-05-31T19:20:07.570Z,23.40
2018-05-31T19:22:36.517Z,23.30
2018-05-31T19:25:10.140Z,23.20
2018-05-31T19:27:38.308Z,23.20
2018-05-31T19:30:11.956Z,23.10
2018-05-31T19:32:40.129Z,23.00
2018-05-31T19:38:11.077Z,22.90
2018-05-31T19:40:39.260Z,22.80
2018-05-31T19:43:16.426Z,22.80
2018-05-31T19:45:45.364Z,22.60
2018-05-31T19:48:13.556Z,22.60
2018-05-31T19:53:24.409Z,22.40
2018-05-31T19:55:53.341Z,22.30
2018-05-31T19:58:27.146Z,22.30
2018-05-31T20:01:00.919Z,22.20
2018-05-31T20:03:29.922Z,22.10
2018-05-31T20:05:58.105Z,22.10
2018-05-31T20:08:26.273Z,22.10
2018-05-31T20:10:54.461Z,22.10
2018-05-31T20:13:22.638Z,22.00
2018-05-31T20:15:51.481Z,22.00
2018-05-31T20:18:19.792Z,22.00
2018-05-31T20:20:48.008Z,21.90
2018-05-31T20:23:16.255Z,21.90
2018-05-31T20:25:44.616Z,21.80
2018-05-31T20:28:12.856Z,21.80
2018-05-31T20:30:41.276Z,21.80
2018-05-31T20:33:09.405Z,21.70
2018-05-31T20:35:37.607Z,21.70
2018-05-31T20:38:05.776Z,21.70
2018-05-31T20:40:33.947Z,21.60
2018-05-31T20:43:02.126Z,21.60
2018-05-31T20:45:30.296Z,21.50
2018-05-31T20:47:58.584Z,21.50
2018-05-31T20:50:27.499Z,21.40
2018-05-31T20:52:55.672Z,21.40
2018-05-31T20:55:23.913Z,21.30
2018-05-31T20:57:52.058Z,21.20
2018-05-31T21:00:20.299Z,21.20
2018-05-31T21:02:49.265Z,21.10
2018-05-31T21:05:17.460Z,21.10
2018-05-31T21:07:45.829Z,21.20
2018-05-31T21:10:14.006Z,21.10
2018-05-31T21:12:42.965Z,21.10
2018-05-31T21:15:11.165Z,21.10
2018-05-31T21:17:39.324Z,21.10
2018-05-31T21:20:07.503Z,21.10
2018-05-31T21:22:35.672Z,21.10
2018-05-31T21:25:03.889Z,21.10
2018-05-31T21:27:32.195Z,21.00
2018-05-31T21:30:00.541Z,21.00
2018-05-31T21:32:30.352Z,20.90
2018-05-31T21:34:59.350Z,20.90
2018-05-31T21:37:28.328Z,20.90
2018-05-31T21:39:57.318Z,20.70
2018-05-31T21:42:26.285Z,20.70
2018-05-31T21:44:54.550Z,20.70
2018-05-31T21:47:22.886Z,20.70
2018-05-31T21:49:51.025Z,20.70
2018-05-31T21:52:19.225Z,20.60
2018-05-31T21:54:47.416Z,20.60
2018-05-31T21:57:15.575Z,20.60
2018-05-31T21:59:43.736Z,20.60
2018-05-31T22:02:12.650Z,20.60
2018-05-31T22:04:40.812Z,20.60
2018-05-31T22:07:08.997Z,20.60
2018-05-31T22:09:37.375Z,20.50
2018-05-31T22:12:05.559Z,20.50
2018-05-31T22:14:33.994Z,20.50
2018-05-31T22:17:02.971Z,20.40
2018-05-31T22:19:31.148Z,20.40
2018-05-31T22:21:59.359Z,20.40
2018-05-31T22:24:27.543Z,20.40
2018-05-31T22:26:55.681Z,20.30
2018-05-31T22:29:23.851Z,20.30
2018-05-31T22:31:52.767Z,20.20
2018-05-31T22:34:20.928Z,20.20
2018-05-31T22:36:49.108Z,20.20
2018-05-31T22:39:17.272Z,20.10
2018-05-31T22:41:45.464Z,20.10
2018-05-31T22:44:13.612Z,20.10
2018-05-31T22:46:42.521Z,20.00
2018-05-31T22:49:10.673Z,19.90
2018-05-31T22:51:42.482Z,19.90
2018-05-31T22:54:10.694Z,19.90
2018-05-31T22:56:41.149Z,19.90
2018-05-31T22:59:09.346Z,19.90
2018-05-31T23:01:37.577Z,19.90
2018-05-31T23:04:08.892Z,19.80
2018-05-31T23:06:37.875Z,19.80
2018-05-31T23:09:06.054Z,19.80
2018-05-31T23:11:34.195Z,19.80
2018-05-31T23:14:02.377Z,19.80
2018-05-31T23:16:30.595Z,19.80
2018-05-31T23:18:58.743Z,19.80
2018-05-31T23:21:27.685Z,19.80
2018-05-31T23:23:55.861Z,19.80
2018-05-31T23:26:24.034Z,19.70
2018-05-31T23:28:52.208Z,19.70
2018-05-31T23:31:20.408Z,19.70
2018-05-31T23:33:48.598Z,19.70
2018-05-31T23:36:16.801Z,19.70
2018-05-31T23:38:44.963Z,19.70
2018-05-31T23:41:13.132Z,19.70
2018-05-31T23:43:41.344Z,19.60
2018-05-31T23:46:09.552Z,19.60
2018-05-31T23:48:37.707Z,19.60
2018-05-31T23:51:05.875Z,19.60
2018-05-31T23:53:34.038Z,19.60
2018-05-31T23:56:02.298Z,19.50
2018-05-31T23:58:31.223Z,19.50
